Airfield :
LOGIN :

Register | Disclaimer

   EN    FR    IT 

 










Legend :    VFR   Marginal VFR   IFR   Intensive IFR   Very Intensive IFR
Visi :
Ceiling :
>= 8 km
>= 3000ft
5 to 8 km
1000 to 3000 ft
1500m to 5 km
500 to 1000 ft
800 to 1500m
200 to 500 ft
< 800m
< 200 ft
Symbols :   Thunderstorms  Fog  Heavy snow  Heavy precipitations  Wind > 20 kt
SIGMETs :     Misc.  Thunderstorms  Icing  Turbulence  Mountain Waves  Volcanic Ashes







- Airport Elevation : 202 ft
- IATA code : LGW
- Download approach charts


EGKK - London Gatwick

CURRENT METAR :
  • 161150Z 21011KT 180V240 6000 BKN007 08/07 Q1005

EXPIRED METARs :
  • 161120Z 22012KT 9000 -RA BKN007 08/07 Q1005
  • 161050Z 21011KT 6000 BKN006 08/07 Q1006
  • 161020Z 21011KT 5000 HZ BKN006 08/07 Q1006
  • 160950Z 21013KT 170V240 5000 -RA BKN006 08/07 Q1007
  • 160920Z 21010KT 160V240 5000 -RA BKN006 08/07 Q1007
  • 160850Z 21010KT 6000 BKN006 08/07 Q1007

TAF TAF EGKK
Valid from the 16 at 12:00 until the 17 at 18:00 UTC


161055Z 1612/1718 21012KT 9999 BKN008
TEMPO 1612/1618 8000 -RADZ BKN010
PROB40
TEMPO 1612/1614 22016G26KT 4000 RADZ BKN007
BECMG 1615/1618 27008KT
PROB30
TEMPO 1615/1617 22016G26KT 4000 +RA BKN008
TEMPO 1702/1710 BKN010
PROB30
TEMPO 1708/1711 4000 SHRASN
BECMG 1709/1712 33012KT
TEMPO 1709/1712 32015G25KT
No reported NOTAMs for that airfield.



MET'MAP, your aeronautical weather chart ! - Copyright ORBIFLY December 2007 - Disclaimer

ORBIFLY MET'MAP TEAM :

Programming & Development : Alexandra Zaïnal
Concept & Development : Baudouin d'Aumeries
Co-Development & Prog : Marc-Olivier Méhu
Technical & hardware support : Manuel Goepfert

Contact : metmap@orbifly.com




SOURCES & CREDITS :

   NOAA